createdAt,value
2023-02-08T00:00:06.612Z,49.38
2023-02-08T00:02:34.376Z,49.57
2023-02-08T00:05:02.225Z,49.54
2023-02-08T00:07:30.046Z,49.50
2023-02-08T00:09:57.853Z,49.44
2023-02-08T00:12:25.817Z,49.58
2023-02-08T00:14:53.590Z,49.47
2023-02-08T00:17:22.704Z,49.56
2023-02-08T00:19:50.401Z,49.50
2023-02-08T00:22:18.182Z,49.09
2023-02-08T00:24:45.889Z,49.13
2023-02-08T00:27:13.643Z,49.41
2023-02-08T00:29:41.344Z,49.76
2023-02-08T00:32:10.737Z,49.19
2023-02-08T00:34:39.784Z,49.50
2023-02-08T00:37:08.675Z,49.43
2023-02-08T00:39:36.528Z,49.43
2023-02-08T00:42:04.303Z,49.63
2023-02-08T00:44:32.168Z,49.86
2023-02-08T00:47:00.584Z,49.42
2023-02-08T00:49:28.321Z,49.77
2023-02-08T00:52:09.886Z,49.60
2023-02-08T00:54:38.067Z,49.49
2023-02-08T00:57:06.001Z,49.48
2023-02-08T00:59:37.708Z,49.66
2023-02-08T01:02:05.693Z,49.61
2023-02-08T01:04:33.483Z,49.69
2023-02-08T01:07:05.077Z,49.58
2023-02-08T01:09:34.144Z,49.53
2023-02-08T01:12:02.279Z,49.38
2023-02-08T01:14:30.014Z,50.15
2023-02-08T01:16:57.912Z,49.59
2023-02-08T01:19:25.647Z,49.51
2023-02-08T01:21:53.491Z,49.60
2023-02-08T01:24:22.698Z,49.64
2023-02-08T01:26:50.529Z,49.98
2023-02-08T01:29:18.300Z,49.50
2023-02-08T01:31:47.157Z,49.48
2023-02-08T01:34:14.941Z,49.31
2023-02-08T01:36:42.829Z,49.34
2023-02-08T01:39:11.512Z,49.07
2023-02-08T01:41:43.503Z,49.14
2023-02-08T01:44:45.242Z,49.46
2023-02-08T01:47:13.090Z,49.36
2023-02-08T01:49:41.900Z,49.48
2023-02-08T01:52:10.840Z,49.77
2023-02-08T01:54:46.035Z,49.68
2023-02-08T01:57:15.138Z,49.12
2023-02-08T01:59:44.612Z,49.45
2023-02-08T02:02:13.888Z,49.35
2023-02-08T02:04:41.799Z,49.16
2023-02-08T02:07:09.560Z,49.27
2023-02-08T02:09:41.242Z,49.34
2023-02-08T02:12:09.185Z,49.15
2023-02-08T02:14:38.583Z,49.52
2023-02-08T02:17:06.386Z,48.95
2023-02-08T02:19:38.163Z,49.20
2023-02-08T02:22:19.971Z,49.60
2023-02-08T02:25:13.517Z,49.25
2023-02-08T02:28:10.675Z,49.66
2023-02-08T02:31:07.837Z,49.49
2023-02-08T02:33:46.599Z,49.45
2023-02-08T02:36:18.987Z,49.39
2023-02-08T02:38:54.660Z,49.23
2023-02-08T02:41:41.101Z,49.25
2023-02-08T02:44:13.240Z,49.44
2023-02-08T02:46:42.229Z,49.43
2023-02-08T02:49:13.989Z,49.34
2023-02-08T02:51:43.838Z,49.06
2023-02-08T02:54:14.337Z,49.27
2023-02-08T02:56:46.037Z,48.82
2023-02-08T02:59:14.627Z,49.12
2023-02-08T03:01:43.540Z,48.79
2023-02-08T03:04:16.882Z,48.75
2023-02-08T03:06:52.570Z,48.94
2023-02-08T03:09:40.249Z,48.58
2023-02-08T03:12:15.464Z,48.53
2023-02-08T03:14:46.078Z,48.54
2023-02-08T03:17:24.559Z,48.62
2023-02-08T03:19:58.407Z,48.53
2023-02-08T03:22:27.645Z,48.87
2023-02-08T03:24:56.062Z,48.75
2023-02-08T03:27:28.994Z,48.58
2023-02-08T03:30:00.174Z,48.87
2023-02-08T03:32:29.494Z,48.52
2023-02-08T03:35:01.005Z,48.86
2023-02-08T03:37:29.939Z,48.88
2023-02-08T03:40:00.057Z,48.60
2023-02-08T03:42:28.228Z,48.76
2023-02-08T03:44:57.825Z,48.25
2023-02-08T03:47:27.158Z,48.80
2023-02-08T03:49:56.141Z,48.81
2023-02-08T03:52:25.380Z,48.88
2023-02-08T03:54:56.672Z,48.72
2023-02-08T03:57:25.229Z,48.88
2023-02-08T03:59:55.403Z,49.16
2023-02-08T04:02:23.248Z,48.75
2023-02-08T04:04:51.216Z,48.85
2023-02-08T04:07:19.186Z,48.67
2023-02-08T04:09:48.455Z,48.83
2023-02-08T04:12:16.227Z,49.19
2023-02-08T04:14:44.084Z,49.05
2023-02-08T04:17:11.818Z,48.65
2023-02-08T04:19:39.675Z,49.02
2023-02-08T04:22:07.493Z,48.39
2023-02-08T04:24:35.329Z,48.61
2023-02-08T04:27:06.081Z,48.59
2023-02-08T04:29:34.111Z,48.67
2023-02-08T04:32:02.523Z,48.43
2023-02-08T04:34:30.511Z,48.64
2023-02-08T04:36:58.341Z,48.56
2023-02-08T04:39:26.423Z,48.98
2023-02-08T04:41:54.317Z,48.76
2023-02-08T04:44:23.978Z,48.59
2023-02-08T04:46:51.735Z,48.75
2023-02-08T04:49:19.645Z,48.75
2023-02-08T04:51:47.539Z,48.80
2023-02-08T04:54:15.355Z,48.72
2023-02-08T04:56:43.187Z,48.80
2023-02-08T04:59:10.962Z,48.77
2023-02-08T05:01:40.175Z,48.57
2023-02-08T05:04:07.927Z,49.09
2023-02-08T05:06:35.757Z,48.35
2023-02-08T05:09:03.736Z,48.69
2023-02-08T05:11:32.558Z,48.28
2023-02-08T05:14:00.421Z,48.34
2023-02-08T05:16:28.420Z,48.54
2023-02-08T05:18:58.154Z,48.70
2023-02-08T05:21:26.323Z,48.31
2023-02-08T05:23:54.241Z,48.32
2023-02-08T05:26:22.184Z,48.62
2023-02-08T05:28:50.055Z,48.29
2023-02-08T05:31:19.543Z,48.03
2023-02-08T05:33:47.499Z,48.06
2023-02-08T05:36:17.422Z,48.19
2023-02-08T05:38:45.225Z,48.27
2023-02-08T05:41:14.083Z,47.76
2023-02-08T05:43:41.839Z,48.31
2023-02-08T05:46:09.789Z,48.17
2023-02-08T05:48:37.749Z,47.76
2023-02-08T05:53:34.637Z,48.17
2023-02-08T05:56:02.411Z,48.25
2023-02-08T05:58:30.319Z,47.93
2023-02-08T06:00:58.414Z,47.85
2023-02-08T06:03:26.446Z,47.75
2023-02-08T06:05:54.115Z,47.49
2023-02-08T06:08:21.999Z,47.46
2023-02-08T06:10:51.241Z,47.53
2023-02-08T06:13:19.418Z,47.36
2023-02-08T06:15:47.308Z,47.61
2023-02-08T06:18:16.440Z,47.44
2023-02-08T06:20:44.440Z,47.46
2023-02-08T06:23:12.194Z,48.08
2023-02-08T06:25:40.101Z,47.68
2023-02-08T06:28:10.752Z,47.75
2023-02-08T06:30:38.848Z,47.83
2023-02-08T06:33:07.005Z,47.56
2023-02-08T06:35:34.721Z,47.93
2023-02-08T06:38:06.260Z,47.03
2023-02-08T06:40:39.390Z,47.39
2023-02-08T06:43:08.809Z,46.90
2023-02-08T06:45:39.279Z,47.02
2023-02-08T06:48:14.636Z,46.95
2023-02-08T06:50:42.910Z,46.84
2023-02-08T06:53:11.036Z,46.65
2023-02-08T06:55:44.929Z,47.09
2023-02-08T06:58:14.232Z,47.33
2023-02-08T07:00:50.224Z,47.38
2023-02-08T07:03:18.576Z,47.15
2023-02-08T07:06:02.543Z,46.89
2023-02-08T07:08:34.657Z,47.07
2023-02-08T07:11:07.802Z,46.97
2023-02-08T07:13:37.099Z,46.83
2023-02-08T07:16:04.991Z,46.80
2023-02-08T07:18:33.238Z,46.51
2023-02-08T07:21:03.651Z,46.83
2023-02-08T07:23:31.388Z,46.76
2023-02-08T07:26:02.786Z,46.67
2023-02-08T07:28:30.595Z,46.39
2023-02-08T07:30:59.737Z,46.52
2023-02-08T07:33:27.581Z,46.19
2023-02-08T07:35:55.452Z,46.81
2023-02-08T07:38:23.326Z,46.63
2023-02-08T07:40:51.068Z,46.27
2023-02-08T07:43:18.986Z,46.22
2023-02-08T07:45:46.700Z,46.18
2023-02-08T07:48:15.741Z,46.33
2023-02-08T07:50:43.501Z,46.34
2023-02-08T07:53:11.495Z,44.79
2023-02-08T07:55:39.263Z,42.99
2023-02-08T07:58:07.399Z,41.65
2023-02-08T08:00:35.251Z,40.31
2023-02-08T08:03:03.106Z,38.99
2023-02-08T08:05:32.371Z,38.16
2023-02-08T08:08:00.309Z,37.36
2023-02-08T08:10:29.015Z,36.95
2023-02-08T08:12:56.655Z,35.02
2023-02-08T08:15:24.440Z,35.09
2023-02-08T08:17:52.128Z,33.40
2023-02-08T08:20:21.278Z,32.92
2023-02-08T08:22:50.325Z,32.30
2023-02-08T13:03:04.986Z,7.70
2023-02-08T13:05:34.502Z,8.72
2023-02-08T13:08:04.869Z,9.58
2023-02-08T13:10:35.208Z,10.04
2023-02-08T13:13:07.211Z,10.26
2023-02-08T13:15:38.604Z,10.81
2023-02-08T13:18:14.863Z,11.22
2023-02-08T13:20:44.344Z,11.70
2023-02-08T13:23:17.697Z,11.82
2023-02-08T13:25:48.809Z,12.00
2023-02-08T13:28:20.767Z,12.44
2023-02-08T13:30:53.836Z,12.67
2023-02-08T13:33:30.795Z,13.23
2023-02-08T13:35:59.294Z,13.47
2023-02-08T13:38:29.146Z,13.43
2023-02-08T13:41:08.533Z,13.85
2023-02-08T13:43:40.176Z,13.84
2023-02-08T13:46:08.211Z,13.94
2023-02-08T13:48:50.501Z,14.55
2023-02-08T13:51:59.944Z,14.60
2023-02-08T13:54:29.966Z,14.67
2023-02-08T13:56:57.795Z,15.03
2023-02-08T13:59:28.880Z,14.89
2023-02-08T14:02:20.306Z,15.07
2023-02-08T14:04:53.965Z,14.68
2023-02-08T14:07:37.438Z,15.37
2023-02-08T14:10:14.060Z,15.04
2023-02-08T14:12:44.063Z,15.67
2023-02-08T14:15:29.829Z,15.62
2023-02-08T14:18:02.628Z,15.52
2023-02-08T14:20:34.584Z,15.86
2023-02-08T14:23:06.622Z,15.94
2023-02-08T14:25:43.556Z,16.12
2023-02-08T14:28:28.500Z,16.27
2023-02-08T14:31:04.493Z,16.26
2023-02-08T14:33:33.398Z,16.02
2023-02-08T14:36:04.158Z,16.21
2023-02-08T14:38:36.328Z,16.54
2023-02-08T14:41:04.527Z,16.47
2023-02-08T14:43:34.130Z,16.48
2023-02-08T14:46:34.998Z,16.92
2023-02-08T14:49:05.156Z,16.83
2023-02-08T14:51:35.239Z,16.95
2023-02-08T14:54:04.831Z,16.84
2023-02-08T14:56:33.656Z,16.72
2023-02-08T14:59:02.512Z,17.12
2023-02-08T15:01:43.969Z,17.04
2023-02-08T15:04:12.491Z,17.03
2023-02-08T15:07:12.747Z,17.01
2023-02-08T15:09:41.213Z,17.29
2023-02-08T15:12:11.860Z,17.18
2023-02-08T15:14:41.522Z,17.46
2023-02-08T15:17:28.339Z,17.47
2023-02-08T15:19:56.094Z,17.69
2023-02-08T15:22:34.136Z,17.66
2023-02-08T15:25:05.607Z,17.84
2023-02-08T15:27:34.040Z,17.89
2023-02-08T15:30:01.960Z,17.95
2023-02-08T15:32:30.114Z,18.09
2023-02-08T15:34:59.219Z,17.67
2023-02-08T15:37:27.182Z,18.44
2023-02-08T15:39:57.068Z,18.54
2023-02-08T15:42:25.606Z,18.59
2023-02-08T15:44:53.669Z,18.60
2023-02-08T15:47:23.702Z,18.38
2023-02-08T15:49:53.522Z,18.60
2023-02-08T15:52:22.571Z,18.57
2023-02-08T15:54:50.331Z,18.55
2023-02-08T15:57:24.405Z,19.10
2023-02-08T15:59:52.083Z,18.56
2023-02-08T16:02:24.779Z,19.12
2023-02-08T16:04:52.561Z,18.57
2023-02-08T16:07:25.749Z,19.26
2023-02-08T16:09:53.713Z,19.17
2023-02-08T16:12:23.674Z,19.43
2023-02-08T16:14:52.960Z,19.25
2023-02-08T16:17:37.108Z,19.48
2023-02-08T16:20:05.429Z,19.55
2023-02-08T16:22:33.563Z,19.26
2023-02-08T16:25:23.439Z,19.88
2023-02-08T16:27:52.577Z,20.69
2023-02-08T16:30:20.791Z,20.44
2023-02-08T16:32:48.513Z,20.67
2023-02-08T16:35:21.474Z,19.89
2023-02-08T16:37:54.633Z,20.24
2023-02-08T16:40:48.769Z,20.45
2023-02-08T16:43:19.211Z,21.36
2023-02-08T16:45:47.257Z,21.35
2023-02-08T16:48:33.355Z,21.91
2023-02-08T16:51:01.175Z,21.91
2023-02-08T16:53:41.325Z,22.71
2023-02-08T16:56:09.839Z,24.08
2023-02-08T16:58:38.944Z,24.36
2023-02-08T17:01:07.013Z,24.66
2023-02-08T17:03:38.013Z,24.24
2023-02-08T17:06:06.188Z,24.59
2023-02-08T17:08:35.884Z,24.79
2023-02-08T17:11:03.848Z,25.73
2023-02-08T17:13:31.590Z,24.97
2023-02-08T17:16:01.303Z,25.22
2023-02-08T17:18:29.162Z,24.75
2023-02-08T17:20:59.862Z,24.86
2023-02-08T17:23:27.717Z,25.61
2023-02-08T17:25:55.699Z,25.03
2023-02-08T17:28:23.455Z,24.68
2023-02-08T17:30:53.134Z,26.29
2023-02-08T17:33:22.832Z,25.33
2023-02-08T17:35:52.883Z,26.51
2023-02-08T17:38:21.579Z,25.87
2023-02-08T17:40:49.430Z,26.23
2023-02-08T17:43:17.170Z,25.86
2023-02-08T17:45:45.314Z,25.41
2023-02-08T17:48:14.437Z,26.47
2023-02-08T17:50:45.091Z,27.09
2023-02-08T17:53:13.677Z,27.24
2023-02-08T17:55:43.209Z,27.18
2023-02-08T17:58:11.280Z,27.65
2023-02-08T18:00:39.354Z,26.61
2023-02-08T18:03:07.313Z,26.77
2023-02-08T18:05:35.281Z,27.45
2023-02-08T18:08:04.477Z,28.05
2023-02-08T18:10:32.834Z,28.40
2023-02-08T18:13:00.615Z,28.10
2023-02-08T18:15:28.573Z,28.20
2023-02-08T18:17:56.438Z,28.12
2023-02-08T18:20:30.616Z,28.47
2023-02-08T18:22:58.581Z,28.75
2023-02-08T18:25:30.801Z,28.16
2023-02-08T18:28:00.966Z,27.15
2023-02-08T18:31:53.693Z,27.74
2023-02-08T18:37:12.413Z,26.77
2023-02-08T18:39:40.798Z,27.05
2023-02-08T18:42:10.675Z,27.28
2023-02-08T18:44:39.658Z,26.81
2023-02-08T18:47:07.688Z,26.52
2023-02-08T18:49:40.450Z,26.56
2023-02-08T18:52:09.617Z,26.17
2023-02-08T18:54:38.048Z,26.50
2023-02-08T18:57:07.706Z,26.08
2023-02-08T18:59:37.095Z,26.58
2023-02-08T19:02:07.002Z,26.14
2023-02-08T19:04:37.848Z,26.49
2023-02-08T19:07:05.737Z,26.03
2023-02-08T19:09:35.906Z,26.09
2023-02-08T19:12:05.927Z,26.25
2023-02-08T19:14:36.370Z,26.20
2023-02-08T19:17:05.993Z,26.18
2023-02-08T19:19:36.014Z,26.21
2023-02-08T19:22:04.894Z,26.54
2023-02-08T19:24:32.689Z,26.26
2023-02-08T19:27:00.528Z,26.60
2023-02-08T19:29:28.250Z,26.88
2023-02-08T19:31:58.265Z,26.50
2023-02-08T19:34:27.689Z,26.39
2023-02-08T19:36:55.774Z,26.32
2023-02-08T19:39:24.910Z,26.31
2023-02-08T19:41:54.057Z,26.80
2023-02-08T19:44:21.861Z,26.46
2023-02-08T19:46:50.021Z,26.44
2023-02-08T19:49:17.787Z,26.60
2023-02-08T19:51:46.932Z,27.43
2023-02-08T19:54:15.989Z,27.59
2023-02-08T19:56:43.739Z,27.64
2023-02-08T19:59:17.479Z,27.43
2023-02-08T20:01:45.352Z,27.94
2023-02-08T20:04:13.486Z,27.45
2023-02-08T20:06:41.683Z,28.27
2023-02-08T20:09:10.894Z,27.52
2023-02-08T20:11:55.029Z,27.95
2023-02-08T20:14:24.586Z,28.64
2023-02-08T20:16:52.433Z,28.47
2023-02-08T20:19:20.438Z,29.12
2023-02-08T20:21:48.139Z,27.99
2023-02-08T20:24:17.599Z,28.26
2023-02-08T20:26:45.976Z,28.57
2023-02-08T20:29:15.125Z,28.40
2023-02-08T20:31:44.053Z,28.73
2023-02-08T20:34:13.064Z,28.48
2023-02-08T20:36:44.099Z,27.88
2023-02-08T20:39:14.059Z,28.31
2023-02-08T20:41:44.296Z,29.17
2023-02-08T20:44:12.747Z,29.14
2023-02-08T20:46:43.073Z,29.55
2023-02-08T20:49:12.720Z,28.94
2023-02-08T20:51:44.015Z,28.59
2023-02-08T20:54:12.492Z,28.83
2023-02-08T20:56:40.265Z,29.00
2023-02-08T21:01:40.521Z,29.41
2023-02-08T21:04:08.519Z,29.32
2023-02-08T21:06:37.559Z,29.03
2023-02-08T21:09:06.850Z,28.75
2023-02-08T21:11:35.675Z,28.81
2023-02-08T21:14:03.619Z,29.23
2023-02-08T21:16:31.765Z,28.95
2023-02-08T21:19:01.120Z,30.13
2023-02-08T21:21:29.225Z,29.70
2023-02-08T21:23:58.085Z,29.73
2023-02-08T21:26:26.133Z,29.41
2023-02-08T21:28:54.380Z,30.55
2023-02-08T21:31:22.935Z,30.01
2023-02-08T21:33:51.375Z,30.50
2023-02-08T21:36:21.564Z,30.07
2023-02-08T21:38:49.437Z,30.84
2023-02-08T21:41:20.270Z,30.85
2023-02-08T21:43:49.340Z,30.68
2023-02-08T21:46:18.473Z,30.71
2023-02-08T21:49:03.838Z,30.91
2023-02-08T21:51:50.743Z,30.00
2023-02-08T21:54:40.363Z,30.31
2023-02-08T21:57:10.385Z,30.86
2023-02-08T21:59:38.280Z,30.87
2023-02-08T22:02:06.967Z,30.64
2023-02-08T22:04:35.163Z,30.31
2023-02-08T22:07:05.277Z,31.17
2023-02-08T22:09:33.109Z,30.21
2023-02-08T22:12:00.803Z,30.58
2023-02-08T22:14:28.448Z,30.79
2023-02-08T22:16:56.576Z,31.31
2023-02-08T22:19:24.356Z,31.47
2023-02-08T22:21:52.541Z,31.01
2023-02-08T22:24:21.646Z,31.20
2023-02-08T22:26:49.414Z,32.00
2023-02-08T22:29:20.047Z,31.83
2023-02-08T22:31:47.909Z,31.60
2023-02-08T22:34:15.679Z,31.50
2023-02-08T22:36:43.399Z,31.19
2023-02-08T22:39:11.086Z,31.40
2023-02-08T22:41:40.222Z,32.28
2023-02-08T22:44:07.870Z,32.17
2023-02-08T22:46:35.644Z,32.57
2023-02-08T22:49:03.480Z,32.04
2023-02-08T22:51:31.295Z,32.74
2023-02-08T22:53:58.995Z,32.00
2023-02-08T22:56:26.745Z,32.08
2023-02-08T22:58:55.813Z,33.16
2023-02-08T23:01:23.541Z,32.19
2023-02-08T23:03:51.274Z,32.69
2023-02-08T23:06:20.393Z,33.32
2023-02-08T23:08:48.228Z,32.97
2023-02-08T23:11:16.370Z,32.27
2023-02-08T23:13:44.024Z,33.41
2023-02-08T23:16:14.389Z,32.86
2023-02-08T23:18:42.391Z,33.54
2023-02-08T23:21:10.579Z,33.60
2023-02-08T23:23:38.314Z,32.81
2023-02-08T23:26:06.862Z,33.40
2023-02-08T23:28:34.691Z,33.69
2023-02-08T23:31:05.513Z,33.87
2023-02-08T23:33:34.930Z,33.47
2023-02-08T23:36:06.662Z,33.41
2023-02-08T23:38:34.413Z,33.53
2023-02-08T23:41:04.031Z,33.66
2023-02-08T23:43:32.124Z,34.27
2023-02-08T23:45:59.898Z,34.47
2023-02-08T23:48:27.725Z,33.28
2023-02-08T23:50:59.770Z,33.53
2023-02-08T23:53:30.656Z,34.20
2023-02-08T23:56:09.449Z,34.19
2023-02-08T23:58:37.257Z,34.48
